createdAt,value
2022-09-15T00:02:23.396Z,100005.19
2022-09-15T00:04:52.818Z,100010.19
2022-09-15T00:07:22.457Z,100011.66
2022-09-15T00:09:51.835Z,99997.63
2022-09-15T00:12:21.279Z,100000.69
2022-09-15T00:14:50.644Z,99994.63
2022-09-15T00:17:22.829Z,99998.81
2022-09-15T00:19:52.330Z,99984.97
2022-09-15T00:22:22.693Z,99970.75
2022-09-15T00:24:52.295Z,99938.88
2022-09-15T00:27:21.670Z,99923.28
2022-09-15T00:29:51.065Z,99907.72
2022-09-15T00:32:23.030Z,99898.31
2022-09-15T00:34:53.615Z,99889.50
2022-09-15T00:37:23.297Z,99880.78
2022-09-15T00:39:52.747Z,99873.13
2022-09-15T00:42:23.710Z,99876.59
2022-09-15T00:44:58.930Z,99880.91
2022-09-15T00:47:32.859Z,99873.94
2022-09-15T00:50:06.652Z,99878.25
2022-09-15T00:52:39.480Z,99880.78
2022-09-15T00:55:11.345Z,99872.09
2022-09-15T00:57:49.180Z,99873.94
2022-09-15T01:00:22.281Z,99882.44
2022-09-15T01:02:54.489Z,99885.94
2022-09-15T01:05:26.234Z,99880.78
2022-09-15T01:07:59.206Z,99881.63
2022-09-15T01:10:30.278Z,99892.84
2022-09-15T01:13:01.737Z,99898.03
2022-09-15T01:15:38.109Z,99899.69
2022-09-15T01:18:16.458Z,99898.88
2022-09-15T01:21:04.374Z,99894.50
2022-09-15T01:24:11.386Z,99894.66
2022-09-15T01:26:54.366Z,99897.28
2022-09-15T01:29:54.442Z,99893.00
2022-09-15T01:32:41.546Z,99892.13
2022-09-15T01:35:17.973Z,99889.50
2022-09-15T01:37:49.602Z,99892.06
2022-09-15T01:40:20.432Z,99888.63
2022-09-15T01:42:51.297Z,99900.72
2022-09-15T01:45:26.466Z,99885.13
2022-09-15T01:47:57.607Z,99894.66
2022-09-15T01:50:31.201Z,99888.69
2022-09-15T01:53:03.693Z,99883.50
2022-09-15T01:55:40.611Z,99880.97
2022-09-15T01:58:10.653Z,99878.34
2022-09-15T02:00:45.681Z,99889.56
2022-09-15T02:03:19.422Z,99880.09
2022-09-15T02:05:53.078Z,99873.31
2022-09-15T02:08:28.540Z,99874.19
2022-09-15T02:11:03.436Z,99883.88
2022-09-15T02:13:40.834Z,99879.59
2022-09-15T02:16:19.874Z,99886.63
2022-09-15T02:19:15.022Z,99893.66
2022-09-15T02:21:57.253Z,99900.63
2022-09-15T02:24:32.257Z,99909.16
2022-09-15T02:27:02.410Z,99925.63
2022-09-15T02:29:33.651Z,99926.22
2022-09-15T02:32:07.386Z,99935.53
2022-09-15T02:34:39.429Z,99931.53
2022-09-15T02:37:09.700Z,99936.38
2022-09-15T02:39:42.593Z,99944.06
2022-09-15T02:42:12.656Z,99919.03
2022-09-15T02:44:42.242Z,99927.63
2022-09-15T02:47:14.273Z,99935.47
2022-09-15T02:49:43.621Z,99929.34
2022-09-15T02:52:13.010Z,99934.50
2022-09-15T02:54:42.411Z,99934.41
2022-09-15T02:57:11.922Z,99930.13
2022-09-15T02:59:53.911Z,99926.66
2022-09-15T03:02:25.966Z,99933.56
2022-09-15T03:04:55.519Z,99929.31
2022-09-15T03:07:24.916Z,99928.44
2022-09-15T03:09:54.505Z,99927.63
2022-09-15T03:12:24.532Z,99926.75
2022-09-15T03:14:53.927Z,99919.84
2022-09-15T03:17:25.906Z,99920.63
2022-09-15T03:19:55.290Z,99921.53
2022-09-15T03:22:24.758Z,99922.41
2022-09-15T03:24:54.130Z,99927.63
2022-09-15T03:27:23.526Z,99931.72
2022-09-15T03:29:53.055Z,99927.25
2022-09-15T03:32:22.449Z,99918.34
2022-09-15T03:34:58.368Z,99929.53
2022-09-15T03:37:28.521Z,99931.25
2022-09-15T03:39:58.165Z,99934.56
2022-09-15T03:42:27.772Z,99930.03
2022-09-15T03:44:57.324Z,99923.09
2022-09-15T03:47:26.683Z,99919.59
2022-09-15T03:49:58.642Z,99921.31
2022-09-15T03:52:28.506Z,99918.81
2022-09-15T03:54:57.865Z,99925.75
2022-09-15T03:57:27.286Z,99918.69
2022-09-15T03:59:56.676Z,99917.81
2022-09-15T04:02:26.192Z,99916.97
2022-09-15T04:04:58.214Z,99927.28
2022-09-15T04:07:27.605Z,99918.56
2022-09-15T04:09:57.285Z,99923.78
2022-09-15T04:12:27.157Z,99920.31
2022-09-15T04:14:56.734Z,99921.09
2022-09-15T04:17:26.147Z,99912.50
2022-09-15T04:19:58.184Z,99919.34
2022-09-15T04:22:27.683Z,99906.38
2022-09-15T04:24:57.066Z,99911.66
2022-09-15T04:27:26.537Z,99909.03
2022-09-15T04:29:56.098Z,99904.72
2022-09-15T04:32:25.471Z,99900.34
2022-09-15T04:34:54.871Z,99903.91
2022-09-15T04:37:26.848Z,99901.38
2022-09-15T04:39:56.884Z,99910.81
2022-09-15T04:42:26.333Z,99918.50
2022-09-15T04:44:55.720Z,99908.22
2022-09-15T04:47:25.117Z,99908.22
2022-09-15T04:49:54.501Z,99913.41
2022-09-15T04:52:26.474Z,99910.81
2022-09-15T04:54:55.846Z,99916.88
2022-09-15T04:57:25.243Z,99915.03
2022-09-15T04:59:54.638Z,99912.50
2022-09-15T05:02:24.074Z,99911.56
2022-09-15T05:04:53.486Z,99914.97
2022-09-15T05:07:22.896Z,99915.94
2022-09-15T05:09:55.542Z,99914.22
2022-09-15T05:12:24.923Z,99922.69
2022-09-15T05:14:54.305Z,99922.78
2022-09-15T05:17:26.678Z,99921.09
2022-09-15T05:19:56.272Z,99923.69
2022-09-15T05:22:25.638Z,99927.06
2022-09-15T05:24:57.664Z,99930.53
2022-09-15T05:27:27.042Z,99932.34
2022-09-15T05:30:16.132Z,99942.66
2022-09-15T05:32:45.785Z,99940.13
2022-09-15T05:35:15.220Z,99947.84
2022-09-15T05:37:44.597Z,99960.06
2022-09-15T05:40:16.877Z,99968.59
2022-09-15T05:42:46.282Z,99966.91
2022-09-15T05:45:15.661Z,99974.78
2022-09-15T05:47:45.034Z,99977.09
2022-09-15T05:50:14.775Z,99976.31
2022-09-15T05:52:44.172Z,99979.66
2022-09-15T05:55:16.398Z,99988.19
2022-09-15T05:57:46.010Z,99987.25
2022-09-15T06:00:16.589Z,99989.75
2022-09-15T06:02:46.007Z,99990.66
2022-09-15T06:05:15.702Z,99995.88
2022-09-15T06:07:45.090Z,100006.25
2022-09-15T06:10:17.251Z,100002.09
2022-09-15T06:12:46.642Z,100008.31
2022-09-15T06:15:16.082Z,100003.19
2022-09-15T06:17:45.461Z,100014.38
2022-09-15T06:20:14.853Z,100010.31
2022-09-15T06:22:44.306Z,100017.41
2022-09-15T06:25:14.028Z,100007.88
2022-09-15T06:27:46.642Z,100012.25
2022-09-15T06:30:17.652Z,100020.91
2022-09-15T06:32:48.411Z,100026.25
2022-09-15T06:35:18.142Z,100035.75
2022-09-15T06:37:47.653Z,100047.03
2022-09-15T06:40:17.641Z,100039.19
2022-09-15T06:42:49.965Z,100040.31
2022-09-15T06:45:19.614Z,100042.00
2022-09-15T06:47:58.253Z,100046.38
2022-09-15T06:50:36.980Z,100051.66
2022-09-15T06:53:06.351Z,100047.31
2022-09-15T06:55:35.717Z,100063.84
2022-09-15T06:58:07.749Z,100057.88
2022-09-15T07:00:37.139Z,100069.00
2022-09-15T07:03:06.646Z,100065.78
2022-09-15T07:05:36.126Z,100067.66
2022-09-15T07:08:05.953Z,100071.22
2022-09-15T07:10:35.338Z,100074.84
2022-09-15T07:13:07.311Z,100076.63
2022-09-15T07:15:36.710Z,100077.75
2022-09-15T07:18:06.212Z,100085.53
2022-09-15T07:20:35.745Z,100096.16
2022-09-15T07:23:05.118Z,100097.16
2022-09-15T07:25:34.478Z,100095.69
2022-09-15T07:28:04.462Z,100098.28
2022-09-15T07:30:36.430Z,100094.72
2022-09-15T07:33:05.801Z,100095.34
2022-09-15T07:35:35.189Z,100099.81
2022-09-15T07:38:04.546Z,100102.41
2022-09-15T07:40:34.704Z,100103.34
2022-09-15T07:43:04.720Z,100108.59
2022-09-15T07:45:38.570Z,100103.41
2022-09-15T07:48:08.017Z,100109.75
2022-09-15T07:50:37.413Z,100106.44
2022-09-15T07:53:06.933Z,100108.38
2022-09-15T07:55:36.328Z,100115.47
2022-09-15T07:58:06.184Z,100113.69
2022-09-15T08:00:39.464Z,100123.00
2022-09-15T08:03:08.904Z,100133.81
2022-09-15T08:05:41.261Z,100136.47
2022-09-15T08:08:12.981Z,100133.34
2022-09-15T08:10:43.789Z,100133.13
2022-09-15T08:13:13.169Z,100134.97
2022-09-15T08:15:45.461Z,100133.50
2022-09-15T08:18:14.990Z,100141.44
2022-09-15T08:20:44.837Z,100145.94
2022-09-15T08:23:14.383Z,100149.53
2022-09-15T08:25:43.839Z,100150.44
2022-09-15T08:28:13.255Z,100161.81
2022-09-15T08:30:45.263Z,100163.44
2022-09-15T08:33:14.690Z,100166.28
2022-09-15T08:35:44.072Z,100158.78
2022-09-15T08:38:13.590Z,100159.66
2022-09-15T08:40:47.269Z,100166.78
2022-09-15T08:43:20.675Z,100179.56
2022-09-15T08:45:55.525Z,100174.75
2022-09-15T08:48:30.287Z,100191.38
2022-09-15T08:51:01.009Z,100205.38
2022-09-15T08:53:34.561Z,100220.16
2022-09-15T08:56:10.036Z,100227.31
2022-09-15T08:58:40.745Z,100241.19
2022-09-15T09:01:21.607Z,100254.84
2022-09-15T09:04:02.365Z,100261.88
2022-09-15T09:06:37.897Z,100250.84
2022-09-15T09:09:22.681Z,100242.47
2022-09-15T09:12:15.727Z,100270.34
2022-09-15T09:14:54.458Z,100277.91
2022-09-15T09:17:38.117Z,100265.66
2022-09-15T09:20:29.291Z,100267.81
2022-09-15T09:23:00.238Z,100248.34
2022-09-15T09:25:29.731Z,100233.59
2022-09-15T09:28:00.753Z,100223.31
2022-09-15T09:30:32.391Z,100214.63
2022-09-15T09:33:18.538Z,100222.56
2022-09-15T09:35:49.110Z,100219.97
2022-09-15T09:38:23.082Z,100226.56
2022-09-15T09:40:52.997Z,100217.59
2022-09-15T09:43:22.554Z,100197.84
2022-09-15T09:45:52.335Z,100181.41
2022-09-15T09:48:27.173Z,100170.78
2022-09-15T09:50:56.837Z,100156.00
2022-09-15T09:53:31.319Z,100155.13
2022-09-15T09:56:18.053Z,100151.09
2022-09-15T09:58:47.482Z,100160.09
2022-09-15T10:01:18.635Z,100172.63
2022-09-15T10:03:50.692Z,100172.03
2022-09-15T10:06:22.283Z,100194.69
2022-09-15T10:08:59.226Z,100205.06
2022-09-15T10:11:42.891Z,100200.06
2022-09-15T10:14:22.550Z,100208.31
2022-09-15T10:17:02.783Z,100211.34
2022-09-15T10:19:37.380Z,100201.91
2022-09-15T10:22:07.374Z,100206.31
2022-09-15T10:24:38.146Z,100211.16
2022-09-15T10:27:18.942Z,100219.00
2022-09-15T10:29:48.416Z,100241.84
2022-09-15T10:32:27.703Z,100261.97
2022-09-15T10:35:12.377Z,100274.22
2022-09-15T10:37:54.885Z,100288.34
2022-09-15T10:40:37.027Z,100329.19
2022-09-15T10:43:17.130Z,100358.06
2022-09-15T10:45:51.198Z,100372.88
2022-09-15T10:48:34.946Z,100374.59
2022-09-15T10:51:16.076Z,100386.97
2022-09-15T10:54:12.532Z,100410.22
2022-09-15T10:56:44.005Z,100414.00
2022-09-15T10:59:37.102Z,100445.97
2022-09-15T11:02:26.318Z,100452.19
2022-09-15T11:05:07.866Z,100427.81
2022-09-15T11:07:47.793Z,100419.09
2022-09-15T11:10:22.950Z,100416.00
2022-09-15T11:13:01.268Z,100425.06
2022-09-15T11:15:39.676Z,100433.78
2022-09-15T11:18:41.635Z,100390.91
2022-09-15T11:21:27.997Z,100338.78
2022-09-15T11:24:10.193Z,100287.94
2022-09-15T11:26:42.659Z,100229.81
2022-09-15T11:29:16.670Z,100194.84
2022-09-15T11:31:47.701Z,100179.34
2022-09-15T11:34:22.159Z,100172.22
2022-09-15T11:36:54.035Z,100169.72
2022-09-15T11:39:28.997Z,100184.66
2022-09-15T11:42:01.438Z,100175.47
2022-09-15T11:44:32.831Z,100182.59
2022-09-15T11:47:21.665Z,100198.56
2022-09-15T11:49:54.069Z,100205.75
2022-09-15T11:52:47.542Z,100216.53
2022-09-15T11:55:26.576Z,100233.81
2022-09-15T11:58:02.193Z,100261.75
2022-09-15T12:00:31.689Z,100265.38
2022-09-15T12:03:13.299Z,100300.13
2022-09-15T12:05:45.869Z,100309.00
2022-09-15T12:08:19.258Z,100339.53
2022-09-15T12:10:53.407Z,100367.69
2022-09-15T12:13:24.701Z,100402.47
2022-09-15T12:15:54.518Z,100445.41
2022-09-15T12:18:38.453Z,100474.28
2022-09-15T12:21:15.905Z,100536.25
2022-09-15T12:23:49.479Z,100575.81
2022-09-15T12:26:22.886Z,100596.19
2022-09-15T12:29:02.293Z,100620.09
2022-09-15T12:31:36.859Z,100698.09
2022-09-15T12:34:09.499Z,100704.47
2022-09-15T12:36:46.805Z,100747.78
2022-09-15T12:39:25.471Z,100071.53
2022-09-15T12:41:59.400Z,99720.94
2022-09-15T12:44:34.392Z,99528.69
2022-09-15T12:47:05.574Z,99399.34
2022-09-15T12:49:37.204Z,99301.28
2022-09-15T12:52:08.305Z,99194.22
2022-09-15T12:54:38.731Z,99222.50
2022-09-15T12:57:21.425Z,99366.16
2022-09-15T12:59:52.012Z,99427.91
2022-09-15T13:02:45.303Z,99537.31
2022-09-15T13:05:15.383Z,99413.31
2022-09-15T13:07:57.764Z,99422.03
2022-09-15T13:10:32.799Z,99449.78
2022-09-15T13:13:21.622Z,99559.75
2022-09-15T13:15:53.620Z,100418.72
2022-09-15T13:18:24.154Z,100470.34
2022-09-15T13:21:02.262Z,100416.53
2022-09-15T13:23:39.072Z,100337.47
2022-09-15T13:26:11.079Z,100318.22
2022-09-15T13:28:43.225Z,100280.91
2022-09-15T13:31:21.708Z,100247.34
2022-09-15T13:40:36.299Z,100194.84
2022-09-15T13:43:28.532Z,100199.47
2022-09-15T13:46:12.676Z,100184.56
2022-09-15T13:48:51.830Z,100182.72
2022-09-15T13:51:27.294Z,100178.84
2022-09-15T13:53:58.054Z,100179.25
2022-09-15T13:56:31.106Z,100175.38
2022-09-15T13:59:10.129Z,100171.72
2022-09-15T14:01:46.677Z,100168.38
2022-09-15T14:04:19.186Z,100167.66
2022-09-15T14:06:50.102Z,100171.06
2022-09-15T14:09:22.369Z,100161.22
2022-09-15T14:11:55.130Z,100161.47
2022-09-15T14:14:36.230Z,100152.78
2022-09-15T14:17:08.429Z,100158.94
2022-09-15T14:19:39.341Z,100161.91
2022-09-15T14:22:26.363Z,100168.56
2022-09-15T14:24:56.629Z,100180.06
2022-09-15T14:27:28.945Z,100185.50
2022-09-15T14:30:00.339Z,100194.19
2022-09-15T14:32:33.803Z,100216.88
2022-09-15T14:35:07.209Z,100256.25
2022-09-15T14:37:37.077Z,100257.22
2022-09-15T14:40:21.022Z,100225.66
2022-09-15T14:42:50.493Z,100201.56
2022-09-15T14:48:18.992Z,100154.88
2022-09-15T14:50:49.689Z,100151.47
2022-09-15T14:53:21.666Z,100117.78
2022-09-15T14:55:53.758Z,100100.44
2022-09-15T14:58:25.088Z,100088.19
2022-09-15T15:00:57.660Z,100069.56
2022-09-15T15:03:35.854Z,100062.13
2022-09-15T15:06:28.392Z,100048.59
2022-09-15T15:09:01.074Z,100043.28
2022-09-15T15:11:30.939Z,100038.19
2022-09-15T15:14:00.539Z,100029.53
2022-09-15T15:16:31.866Z,100034.75
2022-09-15T15:19:04.342Z,100040.03
2022-09-15T15:21:41.761Z,100044.34
2022-09-15T15:24:20.526Z,100049.41
2022-09-15T15:26:51.116Z,100061.59
2022-09-15T15:29:40.548Z,100056.34
2022-09-15T15:32:14.751Z,100063.34
2022-09-15T15:34:53.757Z,100051.19
2022-09-15T15:37:28.513Z,100063.28
2022-09-15T15:39:58.552Z,100058.00
2022-09-15T15:42:29.150Z,100059.22
2022-09-15T15:45:03.513Z,100055.47
2022-09-15T15:47:34.471Z,100058.44
2022-09-15T15:50:14.553Z,100066.16
2022-09-15T15:52:45.030Z,100066.22
2022-09-15T15:55:16.266Z,100071.34
2022-09-15T15:57:46.337Z,100067.91
2022-09-15T16:00:22.055Z,100070.56
2022-09-15T16:02:51.975Z,100075.72
2022-09-15T16:05:24.886Z,100072.63
2022-09-15T16:07:56.113Z,100069.91
2022-09-15T16:10:26.585Z,100071.50
2022-09-15T16:12:56.594Z,100068.72
2022-09-15T16:15:25.978Z,100062.75
2022-09-15T16:17:55.382Z,100063.59
2022-09-15T16:20:28.365Z,100066.84
2022-09-15T16:22:57.802Z,100085.03
2022-09-15T16:25:33.722Z,100078.75
2022-09-15T16:28:03.261Z,100115.94
2022-09-15T16:30:33.033Z,100096.94
2022-09-15T16:33:02.780Z,100095.25
2022-09-15T16:35:42.975Z,100087.75
2022-09-15T16:38:12.641Z,100064.84
2022-09-15T16:40:42.018Z,100055.00
2022-09-15T16:43:13.559Z,100053.88
2022-09-15T16:45:42.920Z,100034.97
2022-09-15T16:48:12.875Z,100041.06
2022-09-15T16:50:56.020Z,100041.63
2022-09-15T16:53:34.942Z,100037.25
2022-09-15T16:56:06.580Z,100039.22
2022-09-15T16:58:36.319Z,100024.47
2022-09-15T17:01:06.122Z,100013.53
2022-09-15T17:03:35.864Z,100011.56
2022-09-15T17:06:09.166Z,100005.50
2022-09-15T17:08:38.606Z,99989.84
2022-09-15T17:11:10.523Z,99982.56
2022-09-15T17:13:41.726Z,99980.66
2022-09-15T17:16:13.185Z,99952.34
2022-09-15T17:18:42.623Z,99936.75
2022-09-15T17:21:16.147Z,99935.75
2022-09-15T17:23:48.191Z,99936.38
2022-09-15T17:26:19.534Z,99931.13
2022-09-15T17:28:49.284Z,99917.13
2022-09-15T17:31:20.354Z,99910.09
2022-09-15T17:33:50.437Z,99903.00
2022-09-15T17:36:22.552Z,99900.25
2022-09-15T17:38:52.049Z,99906.25
2022-09-15T17:41:23.277Z,99893.22
2022-09-15T17:43:52.685Z,99899.28
2022-09-15T17:46:22.152Z,99904.19
2022-09-15T17:48:51.570Z,99904.09
2022-09-15T17:51:23.541Z,99897.94
2022-09-15T17:53:53.113Z,99890.00
2022-09-15T17:56:22.573Z,99884.81
2022-09-15T17:58:51.953Z,99882.16
2022-09-15T18:01:21.551Z,99893.25
2022-09-15T18:03:50.993Z,99896.66
2022-09-15T18:06:22.984Z,99883.72
2022-09-15T18:08:52.417Z,99900.06
2022-09-15T18:11:22.158Z,99898.31
2022-09-15T18:13:51.580Z,99895.69
2022-09-15T18:16:20.980Z,99895.69
2022-09-15T18:18:50.489Z,99892.28
2022-09-15T18:21:28.636Z,99889.75
2022-09-15T18:23:58.604Z,99893.13
2022-09-15T18:26:27.962Z,99893.94
2022-09-15T18:28:57.351Z,99901.66
2022-09-15T18:31:26.958Z,99896.66
2022-09-15T18:33:56.442Z,99897.53
2022-09-15T18:36:28.570Z,99904.50
2022-09-15T18:38:57.959Z,99906.19
2022-09-15T18:41:27.782Z,99909.78
2022-09-15T18:43:57.196Z,99903.09
2022-09-15T18:46:26.688Z,99899.94
2022-09-15T18:48:56.121Z,99899.28
2022-09-15T18:51:34.853Z,99894.00
2022-09-15T18:54:17.432Z,99886.94
2022-09-15T18:56:46.844Z,99894.53
2022-09-15T18:59:17.756Z,99894.34
2022-09-15T19:01:47.423Z,99898.47
2022-09-15T19:04:16.841Z,99904.38
2022-09-15T19:06:48.818Z,99879.41
2022-09-15T19:09:18.183Z,99882.88
2022-09-15T19:11:47.557Z,99880.44
2022-09-15T19:14:16.966Z,99877.03
2022-09-15T19:16:57.518Z,99884.88
2022-09-15T19:19:27.957Z,99877.22
2022-09-15T19:21:59.896Z,99878.19
2022-09-15T19:24:33.613Z,99880.72
2022-09-15T19:27:03.365Z,99881.78
2022-09-15T19:29:34.863Z,99876.53
2022-09-15T19:32:04.516Z,99871.53
2022-09-15T19:34:34.105Z,99870.78
2022-09-15T19:37:11.344Z,99869.97
2022-09-15T19:39:42.961Z,99869.25
2022-09-15T19:45:04.697Z,99867.66
2022-09-15T19:47:34.085Z,99871.84
2022-09-15T19:50:03.777Z,99869.22
2022-09-15T19:52:35.855Z,99872.47
2022-09-15T19:55:06.770Z,99881.13
2022-09-15T19:57:36.273Z,99880.94
2022-09-15T20:00:07.090Z,99883.44
2022-09-15T20:02:36.714Z,99877.31
2022-09-15T20:05:06.681Z,99873.06
2022-09-15T20:07:38.993Z,99875.66
2022-09-15T20:10:09.085Z,99873.91
2022-09-15T20:12:38.466Z,99878.09
2022-09-15T20:15:09.388Z,99885.03
2022-09-15T20:17:41.776Z,99886.84
2022-09-15T20:20:13.634Z,99883.25
2022-09-15T20:22:45.858Z,99894.41
2022-09-15T20:25:15.590Z,99892.59
2022-09-15T20:27:45.301Z,99898.41
2022-09-15T20:30:14.901Z,99900.13
2022-09-15T20:32:44.257Z,99890.66
2022-09-15T20:35:13.653Z,99904.31
2022-09-15T20:37:45.611Z,99901.63
2022-09-15T20:40:15.049Z,99908.56
2022-09-15T20:42:44.522Z,99904.00
2022-09-15T20:45:15.361Z,99899.59
2022-09-15T20:47:44.738Z,99902.94
2022-09-15T20:50:14.214Z,99895.97
2022-09-15T20:52:46.197Z,99903.66
2022-09-15T20:55:15.567Z,99891.50
2022-09-15T20:57:45.235Z,99908.69
2022-09-15T21:00:16.361Z,99901.91
2022-09-15T21:02:45.761Z,99906.28
2022-09-15T21:05:15.158Z,99902.09
2022-09-15T21:07:47.363Z,99893.63
2022-09-15T21:10:16.810Z,99902.19
2022-09-15T21:12:46.172Z,99897.97
2022-09-15T21:15:15.622Z,99902.38
2022-09-15T21:17:45.342Z,99893.69
2022-09-15T21:20:15.529Z,99895.41
2022-09-15T21:22:47.490Z,99900.56
2022-09-15T21:25:17.086Z,99895.22
2022-09-15T21:27:46.839Z,99890.84
2022-09-15T21:30:16.586Z,99883.97
2022-09-15T21:32:46.100Z,99876.16
2022-09-15T21:35:15.462Z,99879.59
2022-09-15T21:37:47.714Z,99881.25
2022-09-15T21:40:17.304Z,99876.00
2022-09-15T21:42:46.693Z,99881.97
2022-09-15T21:45:16.162Z,99884.59
2022-09-15T21:47:45.541Z,99870.69
2022-09-15T21:50:14.902Z,99875.63
2022-09-15T21:52:47.043Z,99880.72
2022-09-15T21:55:16.601Z,99875.50
2022-09-15T21:57:46.118Z,99879.72
2022-09-15T22:00:17.163Z,99877.16
2022-09-15T22:02:46.539Z,99878.78
2022-09-15T22:05:15.941Z,99873.44
2022-09-15T22:07:47.904Z,99875.91
2022-09-15T22:10:17.543Z,99888.84
2022-09-15T22:12:46.950Z,99885.31
2022-09-15T22:15:16.398Z,99881.00
2022-09-15T22:17:45.774Z,99856.25
2022-09-15T22:20:15.174Z,99869.88
2022-09-15T22:22:45.878Z,99868.97
2022-09-15T22:25:21.799Z,99872.47
2022-09-15T22:27:51.496Z,99868.25
2022-09-15T22:30:21.176Z,99877.78
2022-09-15T22:32:50.562Z,99874.25
2022-09-15T22:35:20.109Z,99883.69
2022-09-15T22:37:49.503Z,99876.91
2022-09-15T22:40:21.562Z,99861.44
2022-09-15T22:42:51.112Z,99925.69
2022-09-15T22:45:20.490Z,99867.44
2022-09-15T22:47:49.869Z,99861.41
2022-09-15T22:50:19.803Z,99856.31
2022-09-15T22:52:49.176Z,99858.72
2022-09-15T22:55:21.242Z,99856.16
2022-09-15T22:57:50.684Z,99855.41
2022-09-15T23:00:20.330Z,99865.72
2022-09-15T23:02:50.052Z,99851.78
2022-09-15T23:05:19.765Z,99856.09
2022-09-15T23:07:49.163Z,99845.81
2022-09-15T23:10:21.247Z,99840.47
2022-09-15T23:12:50.635Z,99843.84
2022-09-15T23:15:20.236Z,99833.56
2022-09-15T23:17:49.799Z,99839.41
2022-09-15T23:20:19.262Z,99838.50
2022-09-15T23:22:48.642Z,99830.63
2022-09-15T23:25:20.670Z,99834.91
2022-09-15T23:27:50.067Z,99837.41
2022-09-15T23:30:19.584Z,99827.13
2022-09-15T23:32:48.988Z,99824.72
2022-09-15T23:35:18.498Z,99822.19
2022-09-15T23:37:51.016Z,99823.91
2022-09-15T23:40:23.509Z,99833.38
2022-09-15T23:42:52.933Z,99827.50
2022-09-15T23:45:22.299Z,99820.56
2022-09-15T23:47:51.683Z,99821.31
2022-09-15T23:50:21.091Z,99818.81
2022-09-15T23:52:50.471Z,99816.19
2022-09-15T23:55:20.072Z,99812.56
2022-09-15T23:57:52.062Z,99817.81
